SARL/AOL METAR and TAF weather

Enter ICAO airport designator
Station Type Date Time Source
SARL METAR 2019/10/15 09:00 UTC NOAA

SARL 150900Z 14017KT 9999 SCT012 BKN015 OVC100 13/11 Q1020


Station Type Date Time Source
SARL Decoded METAR 2019/10/15 09:00 UTC NOAA

Paso De Los Libres Aerodrome, Argentina (SARL) 29-41S 057-09W 70M
Oct 15, 2019 - 05:00 AM EDT / 2019.10.15 0900 UTC
Wind: from the SE (140 degrees) at 20 MPH (17 KT):0
Visibility: greater than 7 mile(s):0
Sky conditions: overcast
Temperature: 55 F (13 C)
Dew Point: 51 F (11 C)
Relative Humidity: 87%
Pressure (altimeter): 30.12 in. Hg (1020 hPa)
ob: SARL 150900Z 14017KT 9999 SCT012 BKN015 OVC100 13/11 Q1020
cycle: 9

Station Type Date Time Source
SARL TAF UTC NOAA

Error!

Example: see airport list